Time;durP1;ratioP1;P1;durP2;ratioP2;P2;SDS_P1;SDS_P2;PMS_P1;PMS_P2;Temp;Humidity;BMP_temperature;BMP_pressure;BME280_temperature;BME280_humidity;BME280_pressure;Samples;Min_cycle;Max_cycle;Signal;HPM_P1;HPM_P2
2022/03/27 00:01:15;;;;;;;1.67;1.58;;;6.90;65.10;;;;;;5032182;28;20052;-71
2022/03/27 00:03:41;;;;;;;6.60;5.90;;;6.90;66.20;;;;;;5032345;28;20029;-72
2022/03/27 00:06:07;;;;;;;2.30;1.85;;;7.00;66.60;;;;;;5031954;28;20025;-72
2022/03/27 00:08:32;;;;;;;3.50;3.30;;;7.20;65.60;;;;;;5032082;28;20082;-71
2022/03/27 00:13:43;;;;;;;0.30;0.30;;;7.30;65.50;;;;;;5031888;28;20541;-71
2022/03/27 00:16:09;;;;;;;0.68;0.68;;;7.20;65.90;;;;;;5031568;28;20173;-71
2022/03/27 00:18:36;;;;;;;0.85;0.85;;;7.20;65.20;;;;;;5032069;28;20366;-71
2022/03/27 00:21:06;;;;;;;2.80;2.55;;;7.30;65.90;;;;;;5030991;28;20053;-71
2022/03/27 00:23:31;;;;;;;1.00;1.00;;;7.20;66.40;;;;;;5030557;28;20492;-72
2022/03/27 00:25:57;;;;;;;0.40;0.40;;;7.20;65.80;;;;;;5031774;28;20024;-71
2022/03/27 00:28:23;;;;;;;1.40;1.33;;;7.10;66.00;;;;;;5030744;28;20438;-72
2022/03/27 00:30:49;;;;;;;1.48;1.48;;;7.20;66.50;;;;;;5031980;28;20025;-72
2022/03/27 00:33:15;;;;;;;1.10;1.10;;;7.20;66.10;;;;;;5031786;28;20044;-72
2022/03/27 00:35:40;;;;;;;0.40;0.40;;;7.40;65.90;;;;;;5030367;28;20037;-71
2022/03/27 00:38:07;;;;;;;0.47;0.47;;;7.50;65.60;;;;;;5031818;28;20370;-71
2022/03/27 00:40:34;;;;;;;8.27;6.53;;;7.50;65.70;;;;;;5031907;28;20021;-72
2022/03/27 00:43:00;;;;;;;0.77;0.77;;;7.60;65.10;;;;;;5031714;28;20025;-72
2022/03/27 00:45:25;;;;;;;1.60;1.58;;;7.70;65.50;;;;;;5031588;28;20025;-71
2022/03/27 00:47:51;;;;;;;0.40;0.40;;;7.50;65.80;;;;;;5031726;28;20521;-72
2022/03/27 00:50:17;;;;;;;1.15;1.15;;;7.40;66.70;;;;;;5031656;28;20076;-72
2022/03/27 00:52:43;;;;;;;2.20;1.73;;;7.40;67.10;;;;;;5031519;28;20056;-71
2022/03/27 00:55:08;;;;;;;0.55;0.55;;;7.30;66.90;;;;;;5031615;28;20068;-72
2022/03/27 00:57:35;;;;;;;0.73;0.73;;;7.40;67.00;;;;;;5031578;28;20440;-71
2022/03/27 01:00:00;;;;;;;0.20;0.20;;;7.40;66.80;;;;;;5031673;28;20389;-71
2022/03/27 01:02:26;;;;;;;5.35;1.65;;;7.20;65.90;;;;;;5030253;28;20032;-71
2022/03/27 01:04:55;;;;;;;1.65;1.55;;;7.30;66.10;;;;;;5030212;28;20026;-72
2022/03/27 01:07:21;;;;;;;4.90;1.42;;;7.50;66.30;;;;;;5030063;28;20556;-72
2022/03/27 01:09:48;;;;;;;0.30;0.30;;;7.40;66.30;;;;;;5031546;28;20102;-72
2022/03/27 01:12:17;;;;;;;3.13;2.80;;;7.40;66.50;;;;;;5031464;28;20029;-71
2022/03/27 01:14:46;;;;;;;1.10;1.10;;;7.40;66.90;;;;;;5031382;28;20559;-72
2022/03/27 01:17:17;;;;;;;0.88;0.88;;;7.40;66.30;;;;;;5031363;28;20021;-72
2022/03/27 01:19:49;;;;;;;2.58;2.38;;;7.20;66.70;;;;;;5030208;28;20032;-71
2022/03/27 01:22:16;;;;;;;0.20;0.20;;;7.20;67.20;;;;;;5031383;28;20028;-72
2022/03/27 01:24:43;;;;;;;0.43;0.43;;;7.30;67.10;;;;;;5030116;28;20021;-72
2022/03/27 01:27:09;;;;;;;0.20;0.20;;;7.20;67.20;;;;;;5034486;28;20033;-72
2022/03/27 01:29:35;;;;;;;1.95;1.77;;;7.30;67.00;;;;;;5033608;28;20516;-71
2022/03/27 01:32:03;;;;;;;0.73;0.73;;;7.50;67.30;;;;;;5035299;28;20033;-71
2022/03/27 01:34:30;;;;;;;13.30;2.35;;;7.40;67.20;;;;;;5034754;28;20112;-71
2022/03/27 01:36:55;;;;;;;2.35;2.15;;;7.40;67.20;;;;;;5033352;28;20033;-72
2022/03/27 01:39:22;;;;;;;0.30;0.30;;;7.50;67.20;;;;;;5033539;28;20477;-71
2022/03/27 01:41:47;;;;;;;2.17;1.17;;;7.50;67.30;;;;;;5034585;28;20120;-72
2022/03/27 01:44:15;;;;;;;0.52;0.52;;;7.30;66.80;;;;;;5033329;28;20531;-71
2022/03/27 01:46:42;;;;;;;0.30;0.30;;;7.30;66.60;;;;;;5033416;28;20086;-71
2022/03/27 01:49:10;;;;;;;0.43;0.43;;;7.30;67.30;;;;;;5034661;28;20022;-72
2022/03/27 01:51:37;;;;;;;0.38;0.38;;;7.30;67.20;;;;;;5033207;28;20037;-71
2022/03/27 01:54:04;;;;;;;2.10;1.95;;;7.30;66.70;;;;;;5034534;28;20023;-72
2022/03/27 01:56:30;;;;;;;0.30;0.30;;;7.20;67.40;;;;;;5034284;28;20060;-71
2022/03/27 01:58:56;;;;;;;0.30;0.30;;;7.20;67.20;;;;;;5034345;28;20025;-70
2022/03/27 02:01:22;;;;;;;0.35;0.35;;;7.20;68.10;;;;;;5034317;28;20441;-71
2022/03/27 02:03:48;;;;;;;0.43;0.43;;;7.10;67.30;;;;;;5034290;28;20021;-71
2022/03/27 02:06:15;;;;;;;1.77;1.70;;;7.10;68.30;;;;;;5049526;28;20484;-71
2022/03/27 02:08:44;;;;;;;2.05;1.70;;;7.00;68.40;;;;;;5034196;28;20033;-71
2022/03/27 02:11:10;;;;;;;0.65;0.65;;;7.00;68.60;;;;;;5034320;28;20393;-71
2022/03/27 02:13:36;;;;;;;3.92;2.28;;;6.90;69.10;;;;;;5034057;28;20165;-71
2022/03/27 02:16:03;;;;;;;7.68;6.80;;;6.80;69.20;;;;;;5033844;28;20107;-71
2022/03/27 02:18:30;;;;;;;11.52;5.78;;;6.90;69.50;;;;;;5034067;28;20017;-71
2022/03/27 02:20:57;;;;;;;2.72;2.40;;;6.90;69.40;;;;;;5049395;28;20014;-72
2022/03/27 02:23:24;;;;;;;1.58;1.58;;;7.00;68.80;;;;;;5033940;28;20017;-72
2022/03/27 02:25:51;;;;;;;0.45;0.45;;;7.10;68.20;;;;;;5032581;28;20403;-72
2022/03/27 02:28:17;;;;;;;1.40;1.40;;;7.10;67.40;;;;;;5033866;28;20100;-72
2022/03/27 02:30:43;;;;;;;1.70;1.60;;;7.00;67.30;;;;;;5032631;28;20113;-72
2022/03/27 02:33:09;;;;;;;0.32;0.32;;;7.10;67.00;;;;;;5033952;28;20040;-71
2022/03/27 02:35:36;;;;;;;0.30;0.30;;;6.90;66.90;;;;;;5033653;28;20029;-71
2022/03/27 02:38:06;;;;;;;3.42;1.27;;;6.70;67.30;;;;;;5031847;28;20053;-71
2022/03/27 02:40:40;;;;;;;0.40;0.40;;;6.40;67.60;;;;;;5032516;28;20060;-72
2022/03/27 02:43:06;;;;;;;0.43;0.43;;;6.10;68.70;;;;;;5033565;28;20073;-72
2022/03/27 02:45:32;;;;;;;7.65;4.13;;;5.80;69.80;;;;;;5033353;28;20035;-71
2022/03/27 02:47:59;;;;;;;2.85;2.70;;;5.60;70.40;;;;;;5033560;28;20473;-72
2022/03/27 02:50:26;;;;;;;2.30;1.23;;;5.40;70.90;;;;;;5033427;28;20421;-72
2022/03/27 02:52:52;;;;;;;1.38;1.38;;;5.40;71.20;;;;;;5033370;28;20025;-72
2022/03/27 02:55:19;;;;;;;2.72;2.47;;;5.30;71.40;;;;;;5033347;28;20025;-71
2022/03/27 02:57:45;;;;;;;0.70;0.70;;;5.40;71.10;;;;;;5033288;28;20029;-72
2022/03/27 03:00:12;;;;;;;1.05;1.05;;;5.30;71.20;;;;;;5033291;28;20029;-72
2022/03/27 03:02:37;;;;;;;3.28;3.13;;;5.20;71.00;;;;;;5033159;28;20025;-71
2022/03/27 03:05:04;;;;;;;3.45;3.22;;;5.00;71.80;;;;;;5031779;28;20481;-71
2022/03/27 03:07:31;;;;;;;1.15;0.95;;;5.00;72.30;;;;;;5031743;28;20504;-71
2022/03/27 03:09:57;;;;;;;1.25;0.65;;;5.10;71.80;;;;;;5031745;28;20021;-71
2022/03/27 03:12:23;;;;;;;1.55;1.50;;;5.20;71.20;;;;;;5033053;28;20021;-72
2022/03/27 03:14:50;;;;;;;3.85;3.55;;;5.20;71.50;;;;;;5031677;28;20033;-72
2022/03/27 03:17:16;;;;;;;0.40;0.40;;;5.40;71.00;;;;;;5032819;28;20021;-71
2022/03/27 03:19:42;;;;;;;2.63;1.30;;;5.60;70.80;;;;;;5032920;28;20406;-71
2022/03/27 03:22:08;;;;;;;0.20;0.20;;;5.70;70.30;;;;;;5032916;28;20271;-71
2022/03/27 03:24:34;;;;;;;0.82;0.82;;;5.50;70.30;;;;;;5031525;28;20116;-71
2022/03/27 03:27:00;;;;;;;0.35;0.35;;;5.60;70.10;;;;;;5032645;28;20030;-71
2022/03/27 03:29:26;;;;;;;0.30;0.30;;;5.80;69.80;;;;;;5031427;28;20025;-71
2022/03/27 03:31:52;;;;;;;7.07;2.25;;;5.90;69.80;;;;;;5032633;28;20028;-71
2022/03/27 03:34:18;;;;;;;0.77;0.77;;;6.00;69.10;;;;;;5032488;28;20029;-72
2022/03/27 03:36:44;;;;;;;6.22;3.40;;;6.00;68.70;;;;;;5032491;28;20545;-71
2022/03/27 03:39:11;;;;;;;2.83;2.38;;;5.90;69.10;;;;;;5032541;28;20308;-72
2022/03/27 03:41:37;;;;;;;0.35;0.35;;;5.90;69.50;;;;;;5031133;28;20034;-72
2022/03/27 03:44:04;;;;;;;0.40;0.40;;;6.00;69.50;;;;;;5032535;28;20074;-72
2022/03/27 03:46:29;;;;;;;3.83;1.65;;;6.00;70.50;;;;;;5032591;28;20108;-72
2022/03/27 03:48:55;;;;;;;2.40;2.22;;;5.80;71.10;;;;;;5031617;28;20064;-71
2022/03/27 03:51:21;;;;;;;0.30;0.30;;;5.50;72.20;;;;;;5031040;28;20069;-71
2022/03/27 03:53:46;;;;;;;1.27;0.93;;;5.40;71.70;;;;;;5032137;28;20508;-71
2022/03/27 03:56:12;;;;;;;22.67;2.47;;;5.10;71.00;;;;;;5032096;28;20021;-72
2022/03/27 03:58:38;;;;;;;1.27;1.27;;;5.00;72.70;;;;;;5032281;28;20516;-72
2022/03/27 04:01:04;;;;;;;0.63;0.63;;;4.90;70.80;;;;;;5032214;28;20104;-71
2022/03/27 04:03:30;;;;;;;0.30;0.30;;;4.70;71.70;;;;;;5030992;28;20036;-72
2022/03/27 04:05:56;;;;;;;0.60;0.60;;;4.80;73.10;;;;;;5032046;28;20116;-71
2022/03/27 04:08:22;;;;;;;2.10;1.60;;;4.60;71.60;;;;;;5032157;28;20079;-72
2022/03/27 04:10:48;;;;;;;3.65;3.42;;;4.20;73.20;;;;;;5032236;28;20025;-71
2022/03/27 04:13:15;;;;;;;1.50;1.30;;;4.30;75.00;;;;;;5030767;28;20125;-71
2022/03/27 04:15:41;;;;;;;0.30;0.30;;;4.30;76.50;;;;;;5031867;28;20026;-71
2022/03/27 04:18:07;;;;;;;0.30;0.30;;;4.60;76.00;;;;;;5031982;28;20018;-71
2022/03/27 04:20:34;;;;;;;0.30;0.30;;;4.60;73.20;;;;;;5032031;28;20025;-71
2022/03/27 04:23:01;;;;;;;0.30;0.30;;;4.70;73.80;;;;;;5031945;28;20492;-71
2022/03/27 04:25:27;;;;;;;0.30;0.30;;;4.70;73.40;;;;;;5030402;28;20388;-72
2022/03/27 04:27:53;;;;;;;3.92;2.05;;;4.60;73.70;;;;;;5031803;28;20029;-71
2022/03/27 04:30:20;;;;;;;3.17;3.00;;;4.60;73.50;;;;;;5032038;28;20473;-72
2022/03/27 04:32:47;;;;;;;5.25;2.67;;;4.60;74.10;;;;;;5031793;28;20413;-71
2022/03/27 04:35:14;;;;;;;0.40;0.40;;;4.70;74.50;;;;;;5031825;28;20021;-71
2022/03/27 04:37:41;;;;;;;0.93;0.93;;;4.80;76.00;;;;;;5031707;28;20018;-72
2022/03/27 04:40:07;;;;;;;0.40;0.40;;;5.00;75.60;;;;;;5031819;28;20056;-71
2022/03/27 04:42:33;;;;;;;0.32;0.32;;;5.20;75.30;;;;;;5053886;23;20061;-73
2022/03/27 04:44:59;;;;;;;0.30;0.30;;;5.20;75.30;;;;;;5033794;28;20032;-70
2022/03/27 04:47:25;;;;;;;0.82;0.82;;;5.10;74.00;;;;;;5051605;28;20032;-70
2022/03/27 04:49:51;;;;;;;0.43;0.43;;;5.30;74.70;;;;;;5033824;28;20036;-70
2022/03/27 04:52:16;;;;;;;0.30;0.30;;;5.40;74.30;;;;;;5033877;28;20025;-70
2022/03/27 04:54:42;;;;;;;0.55;0.55;;;5.40;73.50;;;;;;5017152;28;20032;-70
2022/03/27 04:57:08;;;;;;;13.60;3.40;;;5.30;73.30;;;;;;5033651;28;20087;-70
2022/03/27 04:59:34;;;;;;;0.75;0.75;;;5.30;75.70;;;;;;5051675;28;20017;-70
2022/03/27 05:02:00;;;;;;;0.30;0.30;;;5.50;74.90;;;;;;5037069;28;20037;-71
2022/03/27 05:04:26;;;;;;;1.13;1.02;;;5.70;74.40;;;;;;5055416;28;20121;-70
2022/03/27 05:06:52;;;;;;;0.63;0.63;;;5.60;72.90;;;;;;5037330;28;20111;-70
2022/03/27 05:09:19;;;;;;;1.95;1.83;;;5.40;72.90;;;;;;5055408;28;20055;-70
2022/03/27 05:11:48;;;;;;;0.50;0.50;;;5.40;74.70;;;;;;5055329;28;20035;-71
2022/03/27 05:14:14;;;;;;;1.08;1.05;;;5.40;73.80;;;;;;5037223;28;20036;-70
2022/03/27 05:16:40;;;;;;;0.40;0.40;;;5.20;73.70;;;;;;5055401;28;20026;-70
2022/03/27 05:19:05;;;;;;;1.98;1.00;;;5.10;73.40;;;;;;5037316;28;20029;-70
2022/03/27 05:21:32;;;;;;;1.40;1.05;;;5.20;76.70;;;;;;5055185;28;20396;-71
2022/03/27 05:23:58;;;;;;;0.60;0.60;;;5.30;75.00;;;;;;5037344;28;20039;-71
2022/03/27 05:26:25;;;;;;;0.45;0.45;;;5.40;75.80;;;;;;5037088;28;20519;-71
2022/03/27 05:28:52;;;;;;;4.43;1.63;;;5.50;75.60;;;;;;5054982;28;20033;-70
2022/03/27 05:31:17;;;;;;;2.05;1.67;;;5.50;76.10;;;;;;5054991;28;20159;-70
2022/03/27 05:33:43;;;;;;;7.75;2.22;;;5.30;74.60;;;;;;5054823;28;20124;-70
2022/03/27 05:36:10;;;;;;;6.93;1.60;;;5.10;75.50;;;;;;5054784;28;20029;-70
2022/03/27 05:38:39;;;;;;;0.35;0.35;;;4.80;76.20;;;;;;5054836;28;20021;-70
2022/03/27 05:41:07;;;;;;;0.43;0.43;;;4.80;77.20;;;;;;5037068;28;20096;-70
2022/03/27 05:43:33;;;;;;;1.23;1.13;;;5.00;77.00;;;;;;5054653;28;20036;-71
2022/03/27 05:45:58;;;;;;;0.40;0.40;;;5.30;76.10;;;;;;5054533;28;20065;-70
2022/03/27 05:48:24;;;;;;;0.30;0.30;;;5.50;75.30;;;;;;5054669;28;20036;-71
2022/03/27 05:50:50;;;;;;;26.50;2.10;;;5.60;75.70;;;;;;5036621;28;20115;-71
2022/03/27 05:53:16;;;;;;;0.30;0.30;;;5.80;75.40;;;;;;5036822;28;20120;-71
2022/03/27 05:55:43;;;;;;;3.30;1.08;;;5.60;75.00;;;;;;5054265;28;20028;-71
2022/03/27 05:58:09;;;;;;;0.30;0.30;;;5.50;75.50;;;;;;5054532;28;20392;-71
2022/03/27 06:00:35;;;;;;;1.65;1.30;;;5.70;75.50;;;;;;5054405;28;20017;-71
2022/03/27 06:03:01;;;;;;;0.30;0.30;;;5.90;74.90;;;;;;5036530;28;20028;-71
2022/03/27 06:05:27;;;;;;;0.60;0.60;;;6.00;74.70;;;;;;5054461;28;20056;-71
2022/03/27 06:07:55;;;;;;;0.35;0.35;;;6.20;74.30;;;;;;5054421;28;20530;-72
2022/03/27 06:10:23;;;;;;;0.52;0.52;;;6.50;73.30;;;;;;5054203;28;20036;-72
2022/03/27 06:12:50;;;;;;;0.68;0.68;;;6.60;73.20;;;;;;5034677;28;20025;-71
2022/03/27 06:15:16;;;;;;;2.42;2.22;;;6.70;73.00;;;;;;5054022;28;20032;-71
2022/03/27 06:17:44;;;;;;;0.40;0.40;;;6.70;73.10;;;;;;5036170;28;20474;-71
2022/03/27 06:20:13;;;;;;;22.42;14.35;;;6.60;73.70;;;;;;5053722;28;20028;-71
2022/03/27 06:22:40;;;;;;;9.10;8.20;;;6.70;73.80;;;;;;5036263;28;20444;-72
2022/03/27 06:25:08;;;;;;;4.85;2.05;;;6.80;73.30;;;;;;5053858;28;20024;-72
2022/03/27 06:27:34;;;;;;;0.73;0.73;;;6.90;72.90;;;;;;5035996;28;20025;-71
2022/03/27 06:30:00;;;;;;;0.38;0.38;;;7.10;72.70;;;;;;5035842;28;20468;-71
2022/03/27 06:32:29;;;;;;;1.65;1.58;;;7.30;72.20;;;;;;5054170;28;20095;-72
2022/03/27 06:34:56;;;;;;;9.13;2.85;;;7.60;71.50;;;;;;5053465;28;20029;-72
2022/03/27 06:37:22;;;;;;;0.73;0.73;;;7.60;71.00;;;;;;5053577;28;20013;-72
2022/03/27 06:39:49;;;;;;;1.38;1.38;;;7.60;71.10;;;;;;5053722;28;20033;-72
2022/03/27 06:42:14;;;;;;;0.40;0.40;;;7.70;71.30;;;;;;5053523;28;20052;-71
2022/03/27 06:44:40;;;;;;;0.68;0.68;;;7.80;71.30;;;;;;5053586;28;20076;-71
2022/03/27 06:47:07;;;;;;;0.40;0.40;;;7.90;71.20;;;;;;5051768;28;20087;-71
2022/03/27 06:49:33;;;;;;;1.85;0.68;;;8.00;71.10;;;;;;5035544;28;20113;-72
2022/03/27 06:51:59;;;;;;;0.50;0.50;;;8.20;70.90;;;;;;5052850;28;20017;-72
2022/03/27 06:54:25;;;;;;;0.73;0.73;;;8.20;70.90;;;;;;5052632;28;20035;-71
2022/03/27 06:56:51;;;;;;;0.88;0.88;;;8.30;70.10;;;;;;5035320;28;20479;-72
2022/03/27 06:59:17;;;;;;;0.43;0.43;;;8.40;69.60;;;;;;5053216;28;20384;-72
2022/03/27 07:04:26;;;;;;;0.20;0.20;;;8.60;69.60;;;;;;5053176;28;20047;-72
2022/03/27 07:06:52;;;;;;;0.30;0.30;;;8.70;69.40;;;;;;5035199;28;20025;-72
2022/03/27 07:09:18;;;;;;;0.20;0.20;;;8.80;69.70;;;;;;5035261;28;20396;-72
2022/03/27 07:11:46;;;;;;;0.50;0.50;;;9.10;68.40;;;;;;5035174;28;20124;-72
2022/03/27 07:14:12;;;;;;;0.20;0.20;;;9.30;67.70;;;;;;5052732;28;20135;-72
2022/03/27 07:16:39;;;;;;;0.22;0.22;;;9.50;66.80;;;;;;5034949;28;20028;-72
2022/03/27 07:19:05;;;;;;;0.20;0.20;;;9.70;66.30;;;;;;5052832;28;20078;-72
2022/03/27 07:21:30;;;;;;;1.10;1.00;;;9.80;65.80;;;;;;5051707;28;20029;-72
2022/03/27 07:23:58;;;;;;;0.20;0.20;;;10.00;65.80;;;;;;5052629;28;20079;-72
2022/03/27 07:26:24;;;;;;;0.20;0.20;;;10.10;65.70;;;;;;5052653;28;20472;-72
2022/03/27 07:28:50;;;;;;;0.20;0.20;;;10.20;65.50;;;;;;5052610;28;20036;-72
2022/03/27 07:31:16;;;;;;;0.65;0.65;;;10.30;65.50;;;;;;5034794;28;20028;-73
2022/03/27 07:33:42;;;;;;;0.20;0.20;;;10.30;64.80;;;;;;5052648;28;20033;-71
2022/03/27 07:36:08;;;;;;;0.30;0.30;;;10.30;65.00;;;;;;5052501;28;20494;-71
2022/03/27 07:38:34;;;;;;;0.95;0.95;;;10.30;64.40;;;;;;5034679;28;20100;-72
2022/03/27 07:41:00;;;;;;;0.20;0.20;;;10.40;65.00;;;;;;5034550;28;20029;-71
2022/03/27 07:43:27;;;;;;;0.20;0.20;;;10.50;65.10;;;;;;5052246;28;20037;-72
2022/03/27 07:45:52;;;;;;;0.20;0.20;;;10.60;64.90;;;;;;5050041;28;20468;-71
2022/03/27 07:48:18;;;;;;;0.30;0.30;;;10.80;64.70;;;;;;5037733;28;20082;-71
2022/03/27 07:50:46;;;;;;;0.30;0.30;;;10.90;64.70;;;;;;5052605;28;20025;-72
2022/03/27 07:53:12;;;;;;;0.22;0.22;;;10.90;64.40;;;;;;5034158;28;20121;-71
2022/03/27 07:55:38;;;;;;;1.35;1.35;;;10.90;65.40;;;;;;5051978;28;20443;-71
2022/03/27 07:58:04;;;;;;;0.30;0.30;;;10.70;64.20;;;;;;5052022;28;20029;-72
2022/03/27 08:00:30;;;;;;;0.52;0.52;;;10.60;62.80;;;;;;5034263;28;20047;-72
2022/03/27 08:02:57;;;;;;;3.47;2.10;;;10.70;63.00;;;;;;5034084;28;20028;-71
2022/03/27 08:05:24;;;;;;;1.15;0.88;;;10.60;62.50;;;;;;5051988;28;20025;-71
2022/03/27 08:07:50;;;;;;;0.20;0.20;;;10.70;62.40;;;;;;5051958;28;20060;-71
2022/03/27 08:10:16;;;;;;;4.70;2.97;;;10.70;62.40;;;;;;5034051;28;20443;-71
2022/03/27 08:12:43;;;;;;;1.17;1.15;;;10.70;61.60;;;;;;5051771;28;20025;-71
2022/03/27 08:15:09;;;;;;;8.48;4.07;;;10.80;61.60;;;;;;5034017;28;20025;-71
2022/03/27 08:17:35;;;;;;;6.75;3.92;;;10.90;60.80;;;;;;5051216;28;20426;-71
2022/03/27 08:20:02;;;;;;;1.25;1.25;;;10.80;61.80;;;;;;5051203;28;20164;-72
2022/03/27 08:22:28;;;;;;;13.95;3.65;;;10.80;61.30;;;;;;5050121;28;20021;-71
2022/03/27 08:24:54;;;;;;;0.30;0.30;;;10.90;61.30;;;;;;5051697;28;20021;-72
2022/03/27 08:27:20;;;;;;;4.70;3.13;;;11.00;61.90;;;;;;5051625;28;20021;-72
2022/03/27 08:29:47;;;;;;;6.05;4.53;;;11.20;61.90;;;;;;5051757;28;20479;-72
2022/03/27 08:32:14;;;;;;;3.03;1.20;;;11.30;61.80;;;;;;5051739;28;20429;-71
2022/03/27 08:34:43;;;;;;;1.77;1.27;;;11.30;59.90;;;;;;5033882;28;20079;-71
2022/03/27 08:37:11;;;;;;;6.18;3.13;;;11.40;59.60;;;;;;5055279;28;20445;-71
2022/03/27 08:39:38;;;;;;;1.88;1.77;;;11.50;60.10;;;;;;5037865;28;20116;-71
2022/03/27 08:42:05;;;;;;;30.58;3.65;;;11.70;60.40;;;;;;5037411;28;20029;-71
2022/03/27 08:44:34;;;;;;;3.38;1.98;;;11.80;60.50;;;;;;5055735;28;20037;-72
2022/03/27 08:47:01;;;;;;;0.70;0.35;;;11.90;59.60;;;;;;5037673;28;20494;-72
2022/03/27 08:49:40;;;;;;;1.95;1.77;;;12.10;58.80;;;;;;5055687;28;20021;-72
2022/03/27 08:52:10;;;;;;;1.98;1.35;;;12.10;58.00;;;;;;5055579;28;20104;-71
2022/03/27 08:54:43;;;;;;;3.78;3.50;;;12.30;57.80;;;;;;5036459;28;20029;-72
2022/03/27 08:57:38;;;;;;;5.82;3.80;;;12.50;57.00;;;;;;5055391;28;20025;-72
2022/03/27 09:00:05;;;;;;;4.45;1.73;;;12.60;56.70;;;;;;5055282;28;20013;-71
2022/03/27 09:02:31;;;;;;;2.50;2.30;;;12.90;57.10;;;;;;5055400;28;20066;-71
2022/03/27 09:04:57;;;;;;;7.88;3.72;;;13.30;55.90;;;;;;5055174;28;20431;-71
2022/03/27 09:07:29;;;;;;;6.35;3.85;;;13.60;55.70;;;;;;5055233;28;20029;-72
2022/03/27 09:10:00;;;;;;;2.33;2.20;;;13.80;54.60;;;;;;5055291;28;20029;-71
2022/03/27 09:12:26;;;;;;;13.32;5.72;;;13.90;53.90;;;;;;5055201;28;20037;-71
2022/03/27 09:14:52;;;;;;;0.20;0.20;;;14.00;54.20;;;;;;5020636;28;20025;-71
2022/03/27 09:17:18;;;;;;;9.05;3.42;;;14.30;53.40;;;;;;5037110;28;20021;-71
2022/03/27 09:19:51;;;;;;;0.20;0.20;;;14.60;52.10;;;;;;5055029;28;20388;-71
2022/03/27 09:22:22;;;;;;;0.30;0.30;;;14.90;52.30;;;;;;5055121;28;20447;-71
2022/03/27 09:24:57;;;;;;;17.17;5.50;;;15.30;50.40;;;;;;5054904;28;20036;-72
2022/03/27 09:27:34;;;;;;;7.10;4.00;;;15.00;50.70;;;;;;5037027;28;20048;-71
2022/03/27 09:30:08;;;;;;;2.83;1.95;;;15.30;49.80;;;;;;5036868;28;20033;-72
2022/03/27 09:32:36;;;;;;;3.35;2.30;;;15.40;49.50;;;;;;5054664;28;20546;-72
2022/03/27 09:35:05;;;;;;;2.47;2.30;;;15.60;48.80;;;;;;5054593;28;20032;-72
2022/03/27 09:37:33;;;;;;;2.67;1.80;;;16.10;48.80;;;;;;5054520;28;20036;-72
2022/03/27 09:39:59;;;;;;;16.98;6.05;;;16.80;47.70;;;;;;5053769;28;20025;-72
2022/03/27 09:42:26;;;;;;;12.20;5.10;;;16.90;46.70;;;;;;5016722;28;20087;-72
2022/03/27 09:45:18;;;;;;;0.70;0.70;;;17.00;46.60;;;;;;5034583;28;20021;-72
2022/03/27 09:47:45;;;;;;;;;;;17.10;46.60;;;;;;5044512;28;20028;-72
2022/03/27 09:50:37;;;;;;;0.30;0.30;;;17.50;45.30;;;;;;5054542;28;20414;-72
2022/03/27 09:53:25;;;;;;;7.53;4.30;;;17.90;44.80;;;;;;5019970;28;20028;-72
2022/03/27 09:55:52;;;;;;;2.22;1.77;;;18.10;43.40;;;;;;5054144;28;20543;-72
2022/03/27 09:58:35;;;;;;;1.83;1.40;;;18.20;43.20;;;;;;5053448;28;20025;-72
2022/03/27 10:01:12;;;;;;;6.70;1.38;;;18.30;42.90;;;;;;5054143;28;20063;-72
2022/03/27 10:03:57;;;;;;;4.70;2.42;;;18.60;42.40;;;;;;5054600;28;20024;-72
2022/03/27 10:06:34;;;;;;;11.57;10.38;;;18.80;42.40;;;;;;5054117;28;20099;-72
2022/03/27 10:09:07;;;;;;;6.03;2.50;;;19.30;41.60;;;;;;5035077;28;20048;-72
2022/03/27 10:11:34;;;;;;;2.08;0.73;;;19.70;39.90;;;;;;5035835;28;20032;-72
2022/03/27 10:14:01;;;;;;;5.22;2.33;;;19.80;39.80;;;;;;5032754;28;20021;-72
2022/03/27 10:16:34;;;;;;;0.35;0.35;;;20.10;40.00;;;;;;5033997;28;20389;-72
2022/03/27 10:19:05;;;;;;;10.27;5.28;;;20.00;40.30;;;;;;5016657;28;20079;-72
2022/03/27 10:21:32;;;;;;;4.10;3.75;;;20.00;40.30;;;;;;5016478;28;20034;-71
2022/03/27 10:24:15;;;;;;;8.10;2.22;;;20.50;39.50;;;;;;5016220;28;20127;-72
2022/03/27 10:26:44;;;;;;;3.15;1.08;;;20.80;38.70;;;;;;5032539;28;20035;-72
2022/03/27 10:29:11;;;;;;;2.45;2.25;;;21.00;38.10;;;;;;4999966;28;20029;-72
2022/03/27 10:31:38;;;;;;;1.05;1.00;;;21.20;38.10;;;;;;5017335;28;20072;-72
2022/03/27 10:34:06;;;;;;;5.50;5.00;;;21.50;38.20;;;;;;5051991;28;20074;-72
2022/03/27 10:36:45;;;;;;;0.93;0.93;;;21.60;38.40;;;;;;5053454;28;20025;-72
2022/03/27 10:39:46;;;;;;;4.50;2.58;;;21.70;37.20;;;;;;5035780;28;20052;-72
2022/03/27 10:42:17;;;;;;;4.43;2.15;;;21.50;37.00;;;;;;5049389;28;20064;-72
2022/03/27 10:44:56;;;;;;;0.55;0.55;;;21.60;35.90;;;;;;5063090;23;20144;-72
2022/03/27 10:47:29;;;;;;;19.35;4.07;;;21.20;36.80;;;;;;5073644;28;20043;-71
2022/03/27 10:50:01;;;;;;;3.22;1.77;;;21.30;35.70;;;;;;5055636;28;20044;-71
2022/03/27 10:52:36;;;;;;;3.30;1.85;;;21.50;36.20;;;;;;5055034;28;20037;-71
2022/03/27 10:55:11;;;;;;;2.47;1.40;;;21.60;35.70;;;;;;5055322;28;20450;-71
2022/03/27 10:57:39;;;;;;;2.58;2.35;;;21.80;35.80;;;;;;5072681;28;20031;-71
2022/03/27 11:00:07;;;;;;;0.22;0.22;;;22.20;34.70;;;;;;5054743;28;20081;-71
2022/03/27 11:02:50;;;;;;;13.45;2.88;;;22.10;34.60;;;;;;5072872;28;20464;-71
2022/03/27 11:05:31;;;;;;;13.75;3.83;;;22.40;34.70;;;;;;5054901;28;20033;-71
2022/03/27 11:08:18;;;;;;;4.18;3.28;;;22.10;35.00;;;;;;5071415;28;20107;-71
2022/03/27 11:10:50;;;;;;;7.20;4.18;;;22.00;34.80;;;;;;5072829;28;20143;-71
2022/03/27 11:13:28;;;;;;;0.73;0.60;;;22.00;35.60;;;;;;5072693;28;20037;-71
2022/03/27 11:16:05;;;;;;;3.30;2.28;;;22.40;35.40;;;;;;5054504;28;20032;-71
2022/03/27 11:18:46;;;;;;;4.32;2.17;;;22.60;35.30;;;;;;5052039;28;20693;-72
2022/03/27 11:21:34;;;;;;;7.57;2.58;;;22.80;35.00;;;;;;5036921;28;20475;-71
2022/03/27 11:24:03;;;;;;;5.55;5.07;;;23.20;34.40;;;;;;5054748;28;20025;-72
2022/03/27 11:26:31;;;;;;;7.00;3.08;;;22.50;35.70;;;;;;5054684;28;20576;-71
2022/03/27 11:29:05;;;;;;;3.92;1.25;;;22.40;36.20;;;;;;5072328;28;20494;-71
2022/03/27 11:31:34;;;;;;;1.48;1.33;;;23.00;35.90;;;;;;5072889;28;20029;-71
2022/03/27 11:34:12;;;;;;;6.22;2.92;;;23.10;35.70;;;;;;5072181;28;20028;-71
2022/03/27 11:37:09;;;;;;;6.20;3.58;;;22.80;35.30;;;;;;5072319;28;20024;-71
2022/03/27 11:39:36;;;;;;;1.70;1.52;;;22.60;35.10;;;;;;5054575;28;20020;-71
2022/03/27 11:42:35;;;;;;;11.82;5.30;;;22.60;35.70;;;;;;5071571;28;20036;-71
2022/03/27 11:45:10;;;;;;;21.42;6.00;;;22.60;35.30;;;;;;5052761;28;20052;-71
2022/03/27 11:47:41;;;;;;;3.42;2.60;;;22.80;35.50;;;;;;5054470;28;20016;-71
2022/03/27 11:50:17;;;;;;;1.75;1.58;;;22.80;35.50;;;;;;5072275;28;20033;-71
2022/03/27 11:52:46;;;;;;;11.43;4.90;;;22.70;36.00;;;;;;5072298;28;20032;-71
2022/03/27 11:55:13;;;;;;;2.78;1.38;;;22.70;36.20;;;;;;5054203;28;20031;-71
2022/03/27 11:57:52;;;;;;;0.68;0.68;;;22.80;35.30;;;;;;5054113;28;20064;-71
2022/03/27 12:00:31;;;;;;;4.72;3.45;;;23.10;35.10;;;;;;5054325;28;20136;-71
2022/03/27 12:02:58;;;;;;;12.05;5.80;;;23.20;34.50;;;;;;5054474;28;20557;-71
2022/03/27 12:05:36;;;;;;;2.20;1.17;;;23.10;35.10;;;;;;5072152;28;20051;-71
2022/03/27 12:08:02;;;;;;;10.75;4.30;;;23.00;35.90;;;;;;5072271;28;20487;-71
2022/03/27 12:10:37;;;;;;;9.98;5.43;;;22.70;36.30;;;;;;5053516;28;20203;-71
2022/03/27 12:13:05;;;;;;;0.95;0.88;;;22.80;36.40;;;;;;5072264;28;20028;-71
2022/03/27 12:15:51;;;;;;;1.55;1.45;;;22.70;36.30;;;;;;5071699;28;20059;-71
2022/03/27 12:18:30;;;;;;;5.15;3.38;;;23.00;37.00;;;;;;5072263;28;20028;-71
2022/03/27 12:20:57;;;;;;;14.23;5.78;;;23.20;36.40;;;;;;5072241;28;20033;-71
2022/03/27 12:23:27;;;;;;;5.15;4.75;;;23.00;35.80;;;;;;5072360;28;20039;-71
2022/03/27 12:32:06;;;;;;;2.08;1.75;;;22.80;36.80;;;;;;5071982;28;20028;-71
2022/03/27 12:34:32;;;;;;;21.85;9.65;;;22.60;36.80;;;;;;5053743;28;20024;-71
2022/03/27 12:37:16;;;;;;;8.35;4.35;;;22.00;37.00;;;;;;5070459;28;20036;-71
2022/03/27 12:39:47;;;;;;;2.25;1.60;;;21.60;38.30;;;;;;5071585;28;20106;-71
2022/03/27 12:42:35;;;;;;;5.72;3.67;;;21.60;37.00;;;;;;5062667;28;20372;-72
2022/03/27 12:45:26;;;;;;;1.80;1.70;;;21.30;37.40;;;;;;5051841;28;20044;-72
2022/03/27 12:47:52;;;;;;;5.70;2.20;;;21.40;37.50;;;;;;5050689;28;20032;-73
2022/03/27 12:50:27;;;;;;;4.88;2.20;;;21.50;36.90;;;;;;5053986;28;20040;-73
2022/03/27 12:52:56;;;;;;;9.27;1.50;;;21.10;37.60;;;;;;5036881;28;20028;-71
2022/03/27 12:55:25;;;;;;;3.92;1.50;;;21.30;37.30;;;;;;5070909;28;20056;-71
2022/03/27 12:57:59;;;;;;;0.68;0.47;;;21.30;35.80;;;;;;5071119;28;20020;-71
2022/03/27 13:00:32;;;;;;;3.60;3.30;;;21.30;36.10;;;;;;5070859;28;20147;-71
2022/03/27 13:03:14;;;;;;;3.20;2.17;;;21.20;37.20;;;;;;5070958;28;20052;-71
2022/03/27 13:05:44;;;;;;;4.13;2.63;;;21.00;37.50;;;;;;5070813;28;20471;-71
2022/03/27 13:08:09;;;;;;;2.00;1.23;;;21.10;37.70;;;;;;5071117;28;20471;-71
2022/03/27 13:10:39;;;;;;;2.55;1.50;;;21.10;38.00;;;;;;5071879;28;20023;-71
2022/03/27 13:13:08;;;;;;;1.88;1.10;;;21.20;38.30;;;;;;5071599;28;20464;-71